Time;durP1;ratioP1;P1;durP2;ratioP2;P2;SDS_P1;SDS_P2;PMS_P1;PMS_P2;Temp;Humidity;BMP_temperature;BMP_pressure;BME280_temperature;BME280_humidity;BME280_pressure;Samples;Min_cycle;Max_cycle;Signal;HPM_P1;HPM_P2
2023/12/18 00:01:12;;;;;;;;;;;;;;;11.25;50.77;102197.88;4929530;28;97847;-65
2023/12/18 00:03:37;;;;;;;;;;;;;;;11.25;50.97;102199.75;4949430;28;98123;-69
2023/12/18 00:06:04;;;;;;;;;;;;;;;11.25;50.73;102191.66;4957979;28;130354;-69
2023/12/18 00:08:30;;;;;;;;;;;;;;;11.23;50.75;102180.25;4944140;28;99653;-66
2023/12/18 00:10:56;;;;;;;;;;;;;;;11.22;50.96;102182.13;4929361;28;98608;-69
2023/12/18 00:13:22;;;;;;;;;;;;;;;11.22;50.85;102179.44;4931945;28;118480;-69
2023/12/18 00:15:48;;;;;;;;;;;;;;;11.21;50.85;102171.56;4957608;28;100041;-66
2023/12/18 00:18:14;;;;;;;;;;;;;;;11.21;50.75;102160.78;4943930;28;98912;-69
2023/12/18 00:20:40;;;;;;;;;;;;;;;11.19;51.01;102144.78;4959966;28;99093;-66
2023/12/18 00:23:06;;;;;;;;;;;;;;;11.19;50.80;102142.09;4947873;28;98426;-69
2023/12/18 00:25:32;;;;;;;;;;;;;;;11.18;50.63;102137.75;4951758;28;98766;-69
2023/12/18 00:27:58;;;;;;;;;;;;;;;11.18;50.88;102145.84;4932182;28;98510;-69
2023/12/18 00:30:24;;;;;;;;;;;;;;;11.18;50.82;102139.63;4958688;28;107800;-70
2023/12/18 00:32:50;;;;;;;;;;;;;;;11.17;50.75;102141.50;4914441;27;98044;-69
2023/12/18 00:35:16;;;;;;;;;;;;;;;11.17;50.74;102133.41;4928173;28;118012;-70
2023/12/18 00:37:42;;;;;;;;;;;;;;;11.20;50.83;102145.59;4909403;28;98012;-69
2023/12/18 00:40:08;;;;;;;;;;;;;;;11.17;50.69;102128.03;4924656;28;105381;-70
2023/12/18 00:42:35;;;;;;;;;;;;;;;11.17;50.68;102138.81;4950676;28;98317;-65
2023/12/18 00:45:00;;;;;;;;;;;;;;;11.19;50.85;102133.16;4947751;28;98795;-68
2023/12/18 00:47:28;;;;;;;;;;;;;;;11.17;50.77;102124.50;4926605;28;127061;-69
2023/12/18 00:49:54;;;;;;;;;;;;;;;11.18;50.85;102120.75;4946470;28;98389;-69
2023/12/18 00:52:20;;;;;;;;;;;;;;;11.19;50.90;102115.09;4958615;28;116773;-69
2023/12/18 00:54:46;;;;;;;;;;;;;;;11.19;50.53;102114.28;4927299;28;126758;-69
2023/12/18 00:57:12;;;;;;;;;;;;;;;11.18;51.04;102116.16;4930301;28;99694;-69
2023/12/18 00:59:38;;;;;;;;;;;;;;;11.19;50.57;102103.47;4914387;28;98645;-69
2023/12/18 01:02:04;;;;;;;;;;;;;;;11.19;50.59;102112.41;4960502;28;98360;-69
2023/12/18 01:04:30;;;;;;;;;;;;;;;11.19;50.76;102115.09;4948596;28;105894;-69
2023/12/18 01:06:56;;;;;;;;;;;;;;;11.18;50.55;102102.66;4930040;28;101888;-69
2023/12/18 01:09:22;;;;;;;;;;;;;;;11.19;50.99;102106.19;4932090;28;98371;-69
2023/12/18 01:11:49;;;;;;;;;;;;;;;11.18;50.97;102107.25;4928588;28;98268;-65
2023/12/18 01:14:15;;;;;;;;;;;;;;;11.19;50.76;102111.59;4931791;28;98576;-69
2023/12/18 01:16:41;;;;;;;;;;;;;;;11.19;50.81;102116.97;4943593;28;108289;-69
2023/12/18 01:19:07;;;;;;;;;;;;;;;11.18;50.79;102126.97;4926418;28;99365;-69
2023/12/18 01:21:34;;;;;;;;;;;;;;;11.18;50.60;102124.25;4943889;28;98722;-65
2023/12/18 01:24:00;;;;;;;;;;;;;;;11.18;50.78;102118.03;4956939;28;98414;-69
2023/12/18 01:26:26;;;;;;;;;;;;;;;11.19;50.67;102125.06;4928769;28;129314;-69
2023/12/18 01:28:52;;;;;;;;;;;;;;;11.23;51.03;102126.25;4927345;28;103629;-69
2023/12/18 01:31:24;;;;;;;;;;;;;;;11.30;50.87;102127.81;4943068;28;98030;-70
2023/12/18 01:33:52;;;;;;;;;;;;;;;11.36;50.68;102120.66;4933387;28;98190;-69
2023/12/18 01:36:18;;;;;;;;;;;;;;;11.42;50.85;102124.31;4950702;28;99505;-70
2023/12/18 01:38:45;;;;;;;;;;;;;;;11.46;50.75;102125.47;4948257;28;128075;-70
2023/12/18 01:41:11;;;;;;;;;;;;;;;11.49;50.69;102114.22;4934325;28;98141;-66
2023/12/18 01:43:37;;;;;;;;;;;;;;;11.50;50.88;102113.97;4926461;28;101287;-65
2023/12/18 01:46:03;;;;;;;;;;;;;;;11.53;50.90;102116.22;4927747;28;98410;-66
2023/12/18 01:48:30;;;;;;;;;;;;;;;11.56;50.93;102117.63;4958018;28;99095;-66
2023/12/18 01:50:56;;;;;;;;;;;;;;;11.56;50.92;102112.22;4942570;28;99186;-66
2023/12/18 01:53:44;;;;;;;;;;;;;;;11.58;50.91;102109.28;4924767;28;98819;-70
2023/12/18 01:56:14;;;;;;;;;;;;;;;11.58;50.81;102115.50;4930428;28;98513;-70
2023/12/18 01:58:40;;;;;;;;;;;;;;;11.59;50.80;102103.63;4944120;28;98140;-65
2023/12/18 02:01:06;;;;;;;;;;;;;;;11.59;50.92;102102.81;4931277;28;98567;-66
2023/12/18 02:03:32;;;;;;;;;;;;;;;11.58;50.84;102104.69;4929073;28;98213;-70
2023/12/18 02:05:58;;;;;;;;;;;;;;;11.57;50.82;102105.75;4928893;28;99734;-65
2023/12/18 02:08:25;;;;;;;;;;;;;;;11.57;50.75;102107.66;4928461;28;118613;-70
2023/12/18 02:10:52;;;;;;;;;;;;;;;11.54;50.91;102107.06;4930481;28;98172;-65
2023/12/18 02:13:18;;;;;;;;;;;;;;;11.53;50.90;102100.00;4910983;28;119346;-70
2023/12/18 02:15:43;;;;;;;;;;;;;;;11.51;50.86;102094.03;4909113;28;127293;-70
2023/12/18 02:18:09;;;;;;;;;;;;;;;11.50;50.89;102097.78;4948420;28;129012;-69
2023/12/18 02:20:35;;;;;;;;;;;;;;;11.48;50.91;102090.97;4934194;28;99285;-70
2023/12/18 02:23:02;;;;;;;;;;;;;;;11.49;51.00;102098.03;4942978;28;118550;-65
2023/12/18 02:25:28;;;;;;;;;;;;;;;11.45;51.26;102086.84;4950800;28;100580;-66
2023/12/18 02:27:54;;;;;;;;;;;;;;;11.44;50.95;102084.41;4930667;28;98978;-70
2023/12/18 02:30:24;;;;;;;;;;;;;;;11.42;50.81;102076.53;4929791;28;98055;-70
2023/12/18 02:32:50;;;;;;;;;;;;;;;11.42;50.93;102081.09;4949636;28;98605;-69
2023/12/18 02:35:16;;;;;;;;;;;;;;;11.40;51.04;102075.94;4918265;28;99573;-66
2023/12/18 02:37:42;;;;;;;;;;;;;;;11.38;50.97;102074.53;4935845;28;98509;-66
2023/12/18 02:40:09;;;;;;;;;;;;;;;11.37;50.90;102072.88;4952504;28;98056;-65
2023/12/18 02:42:35;;;;;;;;;;;;;;;11.35;50.96;102075.00;4948223;28;104241;-65
2023/12/18 02:45:02;;;;;;;;;;;;;;;11.32;50.93;102076.28;4953286;28;98269;-66
2023/12/18 02:47:28;;;;;;;;;;;;;;;11.30;50.96;102063.00;4945772;28;98135;-66
2023/12/18 02:49:54;;;;;;;;;;;;;;;11.28;50.90;102065.13;4930336;28;100618;-66
2023/12/18 02:52:20;;;;;;;;;;;;;;;11.28;50.96;102067.03;4924274;28;98073;-69
2023/12/18 02:54:46;;;;;;;;;;;;;;;11.25;51.00;102060.19;4948473;28;128590;-66
2023/12/18 02:57:12;;;;;;;;;;;;;;;11.25;51.00;102059.38;4927782;28;102353;-70
2023/12/18 02:59:38;;;;;;;;;;;;;;;11.22;51.13;102055.25;4929275;28;102258;-70
2023/12/18 03:02:04;;;;;;;;;;;;;;;11.21;50.99;102050.91;4914317;28;99832;-69
2023/12/18 03:04:30;;;;;;;;;;;;;;;11.20;51.05;102048.44;4929784;28;98182;-69
2023/12/18 03:06:56;;;;;;;;;;;;;;;11.19;50.76;102041.41;4947838;28;126305;-65
2023/12/18 03:09:22;;;;;;;;;;;;;;;11.18;50.68;102043.28;4933725;28;98224;-65
2023/12/18 03:11:48;;;;;;;;;;;;;;;11.17;51.01;102038.13;4947215;28;130323;-69
2023/12/18 03:14:14;;;;;;;;;;;;;;;11.15;50.80;102049.13;4931305;28;119104;-69
2023/12/18 03:16:40;;;;;;;;;;;;;;;11.14;50.96;102049.38;4961252;28;127622;-65
2023/12/18 03:19:06;;;;;;;;;;;;;;;11.14;50.66;102046.69;4934005;28;98043;-66
2023/12/18 03:21:33;;;;;;;;;;;;;;;11.13;50.85;102042.34;4930475;28;116689;-69
2023/12/18 03:23:59;;;;;;;;;;;;;;;11.11;50.81;102047.16;4955837;28;98172;-65
2023/12/18 03:26:25;;;;;;;;;;;;;;;11.11;50.89;102049.84;4930608;28;99141;-66
2023/12/18 03:28:51;;;;;;;;;;;;;;;11.10;50.88;102062.53;4959888;28;98358;-66
2023/12/18 03:31:17;;;;;;;;;;;;;;;11.10;51.00;102069.78;4942135;28;97945;-66
2023/12/18 03:33:43;;;;;;;;;;;;;;;11.09;50.94;102077.06;4929929;28;98575;-65
2023/12/18 03:36:09;;;;;;;;;;;;;;;11.07;50.74;102079.16;4945931;28;98112;-69
2023/12/18 03:38:35;;;;;;;;;;;;;;;11.06;50.94;102072.13;4928441;28;107553;-70
2023/12/18 03:41:01;;;;;;;;;;;;;;;11.05;51.02;102087.50;4929423;28;116022;-66
2023/12/18 03:43:27;;;;;;;;;;;;;;;11.04;51.01;102083.19;4946495;28;99566;-70
2023/12/18 03:45:53;;;;;;;;;;;;;;;11.02;50.87;102077.16;4936782;28;98261;-65
2023/12/18 03:48:19;;;;;;;;;;;;;;;11.01;51.13;102078.22;4934043;28;98112;-65
2023/12/18 03:50:45;;;;;;;;;;;;;;;11.00;51.02;102070.34;4948710;28;99517;-69
2023/12/18 03:53:12;;;;;;;;;;;;;;;11.00;50.68;102081.13;4916789;28;109001;-69
2023/12/18 03:55:38;;;;;;;;;;;;;;;10.98;50.99;102078.69;4962322;28;103290;-66
2023/12/18 03:58:04;;;;;;;;;;;;;;;10.97;50.87;102082.44;4932244;28;98072;-65
2023/12/18 04:00:30;;;;;;;;;;;;;;;10.97;50.71;102071.66;4927338;28;105360;-66
2023/12/18 04:02:56;;;;;;;;;;;;;;;10.95;51.00;102075.63;4927548;28;98136;-65
2023/12/18 04:05:25;;;;;;;;;;;;;;;10.94;51.08;102074.81;4939977;28;115780;-65
2023/12/18 04:07:51;;;;;;;;;;;;;;;10.93;50.79;102066.97;4913856;28;97996;-70
2023/12/18 04:10:17;;;;;;;;;;;;;;;10.93;50.77;102072.34;4930138;28;105996;-70
2023/12/18 04:12:43;;;;;;;;;;;;;;;10.92;50.66;102068.81;4910078;28;106198;-66
2023/12/18 04:15:11;;;;;;;;;;;;;;;10.91;50.84;102063.66;4945291;28;127391;-66
2023/12/18 04:17:37;;;;;;;;;;;;;;;10.90;50.59;102064.72;4926244;28;99022;-66
2023/12/18 04:20:03;;;;;;;;;;;;;;;10.89;51.02;102069.28;4913287;28;97903;-70
2023/12/18 04:22:30;;;;;;;;;;;;;;;10.89;50.67;102063.88;4930133;28;99476;-67
2023/12/18 04:24:56;;;;;;;;;;;;;;;10.89;51.00;102057.69;4945509;28;98155;-66
2023/12/18 04:27:22;;;;;;;;;;;;;;;10.89;50.86;102061.19;4946140;28;103506;-70
2023/12/18 04:29:48;;;;;;;;;;;;;;;10.89;50.70;102073.88;4942752;28;98342;-66
2023/12/18 04:32:14;;;;;;;;;;;;;;;10.88;50.82;102066.81;4925026;28;98001;-70
2023/12/18 04:34:40;;;;;;;;;;;;;;;10.87;50.72;102070.56;4929564;28;99070;-70
2023/12/18 04:37:07;;;;;;;;;;;;;;;10.85;50.80;102065.41;4944580;28;98077;-66
2023/12/18 04:39:34;;;;;;;;;;;;;;;10.87;50.97;102065.16;4928492;28;111291;-70
2023/12/18 04:42:00;;;;;;;;;;;;;;;10.86;50.86;102068.91;4946730;28;98312;-66
2023/12/18 04:44:26;;;;;;;;;;;;;;;10.85;51.01;102068.09;4947462;28;107536;-66
2023/12/18 04:46:52;;;;;;;;;;;;;;;10.84;50.83;102065.63;4945790;28;99820;-70
2023/12/18 04:49:18;;;;;;;;;;;;;;;10.85;50.77;102069.97;4930145;28;98604;-66
2023/12/18 04:51:44;;;;;;;;;;;;;;;10.84;50.59;102077.22;4951696;28;100695;-66
2023/12/18 04:54:11;;;;;;;;;;;;;;;10.82;51.07;102077.47;4932835;28;100917;-70
2023/12/18 04:56:37;;;;;;;;;;;;;;;10.82;50.87;102074.78;4928617;28;98246;-66
2023/12/18 04:59:03;;;;;;;;;;;;;;;10.81;50.73;102067.75;4925003;28;99894;-70
2023/12/18 05:01:29;;;;;;;;;;;;;;;10.80;50.98;102068.78;4958550;28;103706;-65
2023/12/18 05:03:55;;;;;;;;;;;;;;;10.79;50.68;102072.53;4912494;28;101997;-66
2023/12/18 05:06:23;;;;;;;;;;;;;;;10.79;50.86;102072.53;4933365;28;97902;-66
2023/12/18 05:08:50;;;;;;;;;;;;;;;10.78;50.70;102076.28;4929613;28;98498;-69
2023/12/18 05:11:20;;;;;;;;;;;;;;;10.77;50.78;102080.03;4927336;28;98235;-68
2023/12/18 05:13:46;;;;;;;;;;;;;;;10.77;50.98;102085.44;4958708;28;98832;-66
2023/12/18 05:16:13;;;;;;;;;;;;;;;10.77;51.02;102079.22;4941548;28;99678;-69
2023/12/18 05:18:40;;;;;;;;;;;;;;;10.75;50.86;102078.63;4929709;28;97883;-69
2023/12/18 05:21:06;;;;;;;;;;;;;;;10.74;50.72;102067.00;4925252;28;98830;-69
2023/12/18 05:23:32;;;;;;;;;;;;;;;10.74;50.90;102074.28;4928687;28;115800;-69
2023/12/18 05:25:58;;;;;;;;;;;;;;;10.73;50.84;102075.34;4926175;28;97760;-65
2023/12/18 05:28:24;;;;;;;;;;;;;;;10.71;50.67;102075.56;4938700;28;115942;-65
2023/12/18 05:30:51;;;;;;;;;;;;;;;10.68;50.82;102084.09;4944622;28;107636;-69
2023/12/18 05:33:17;;;;;;;;;;;;;;;10.69;50.97;102095.69;4926557;28;100141;-66
2023/12/18 05:35:43;;;;;;;;;;;;;;;10.69;50.68;102095.69;4947111;28;98009;-69
2023/12/18 05:38:09;;;;;;;;;;;;;;;10.68;50.96;102094.06;4930259;28;98071;-69
2023/12/18 05:40:35;;;;;;;;;;;;;;;10.66;50.65;102088.91;4925693;28;99658;-69
2023/12/18 05:43:01;;;;;;;;;;;;;;;10.66;50.70;102083.50;4945797;28;98240;-69
2023/12/18 05:45:27;;;;;;;;;;;;;;;10.65;50.57;102083.72;4929379;28;98918;-70
2023/12/18 05:47:53;;;;;;;;;;;;;;;10.64;50.77;102072.13;4941735;28;103769;-69
2023/12/18 05:50:19;;;;;;;;;;;;;;;10.62;50.96;102068.03;4953478;28;98194;-70
2023/12/18 05:52:46;;;;;;;;;;;;;;;10.60;50.83;102057.44;4925703;28;98118;-65
2023/12/18 05:55:12;;;;;;;;;;;;;;;10.60;50.70;102051.25;4938194;28;98266;-69
2023/12/18 05:57:38;;;;;;;;;;;;;;;10.58;50.65;102043.38;4936208;28;98159;-70
2023/12/18 06:00:05;;;;;;;;;;;;;;;10.57;50.68;102047.13;4926428;28;98166;-69
2023/12/18 06:02:32;;;;;;;;;;;;;;;10.55;50.91;102041.97;4953819;28;107108;-69
2023/12/18 06:04:59;;;;;;;;;;;;;;;10.55;51.01;102041.16;4922796;28;98317;-65
2023/12/18 06:07:24;;;;;;;;;;;;;;;10.54;50.69;102044.91;4936512;28;113837;-69
2023/12/18 06:09:50;;;;;;;;;;;;;;;10.52;50.83;102055.91;4908984;28;97994;-69
2023/12/18 06:12:16;;;;;;;;;;;;;;;10.51;51.07;102056.94;4942975;28;98189;-69
2023/12/18 06:14:43;;;;;;;;;;;;;;;10.51;51.14;102065.03;4955828;28;117115;-65
2023/12/18 06:17:09;;;;;;;;;;;;;;;10.49;50.96;102075.25;4941026;28;98205;-69
2023/12/18 06:19:36;;;;;;;;;;;;;;;10.49;50.55;102082.50;4928273;28;98514;-68
2023/12/18 06:22:02;;;;;;;;;;;;;;;10.48;50.98;102078.97;4937896;28;98347;-65
2023/12/18 06:24:28;;;;;;;;;;;;;;;10.47;51.15;102069.25;4938949;28;110017;-69
2023/12/18 06:26:54;;;;;;;;;;;;;;;10.45;51.27;102060.59;4921023;28;98511;-65
2023/12/18 06:29:20;;;;;;;;;;;;;;;10.46;51.00;102061.41;4940907;28;98986;-67
2023/12/18 06:31:47;;;;;;;;;;;;;;;10.45;50.72;102073.22;4921013;28;98156;-70
2023/12/18 06:34:13;;;;;;;;;;;;;;;10.45;50.81;102076.75;4923756;28;98441;-70
2023/12/18 06:36:39;;;;;;;;;;;;;;;10.45;51.09;102092.09;4944901;28;110115;-70
2023/12/18 06:39:05;;;;;;;;;;;;;;;10.46;51.05;102091.06;4923108;28;100008;-66
2023/12/18 06:41:31;;;;;;;;;;;;;;;10.47;50.70;102098.91;4942703;28;124766;-70
2023/12/18 06:43:57;;;;;;;;;;;;;;;10.48;51.13;102092.44;4927826;28;115523;-66
2023/12/18 06:46:23;;;;;;;;;;;;;;;10.48;50.60;102097.84;4939037;28;128527;-64
2023/12/18 06:48:49;;;;;;;;;;;;;;;10.49;50.57;102088.72;4919277;28;98396;-65
2023/12/18 06:51:16;;;;;;;;;;;;;;;10.50;50.92;102095.75;4924586;28;127934;-70
2023/12/18 06:53:42;;;;;;;;;;;;;;;10.52;50.68;102107.13;4955525;28;98331;-65
2023/12/18 06:56:09;;;;;;;;;;;;;;;10.52;50.88;102109.81;4923280;28;98410;-65
2023/12/18 06:58:34;;;;;;;;;;;;;;;10.55;50.40;102119.34;4929007;28;122068;-69
2023/12/18 07:01:00;;;;;;;;;;;;;;;10.56;50.89;102108.31;4927557;28;105745;-66
2023/12/18 07:03:27;;;;;;;;;;;;;;;10.56;50.48;102108.31;4938386;28;98436;-65
2023/12/18 07:05:53;;;;;;;;;;;;;;;10.59;50.55;102095.44;4943492;28;98557;-65
2023/12/18 07:08:18;;;;;;;;;;;;;;;10.61;50.54;102110.34;4926091;28;98694;-69
2023/12/18 07:10:44;;;;;;;;;;;;;;;10.62;50.79;102117.38;4924220;28;127298;-66
2023/12/18 07:13:10;;;;;;;;;;;;;;;10.63;50.49;102119.03;4928152;28;110502;-69
2023/12/18 07:15:36;;;;;;;;;;;;;;;10.64;50.94;102123.34;4924196;28;129124;-65
2023/12/18 07:18:03;;;;;;;;;;;;;;;10.66;50.60;102133.94;4945736;28;124228;-69
2023/12/18 07:20:29;;;;;;;;;;;;;;;10.68;50.80;102138.03;4943211;28;98810;-65
2023/12/18 07:22:56;;;;;;;;;;;;;;;10.70;50.54;102138.66;4938827;28;98432;-70
2023/12/18 07:25:22;;;;;;;;;;;;;;;10.72;50.76;102152.72;4928632;28;98252;-65
2023/12/18 07:27:48;;;;;;;;;;;;;;;10.74;50.53;102149.81;4926894;28;127421;-69
2023/12/18 07:30:14;;;;;;;;;;;;;;;10.75;50.47;102144.16;4953960;28;98010;-69
2023/12/18 07:32:40;;;;;;;;;;;;;;;10.77;50.76;102139.38;4928249;28;112310;-69
2023/12/18 07:35:06;;;;;;;;;;;;;;;10.79;50.31;102144.53;4926047;28;123137;-69
2023/12/18 07:37:32;;;;;;;;;;;;;;;10.82;50.56;102134.13;4921596;28;99176;-70
2023/12/18 07:39:58;;;;;;;;;;;;;;;10.85;50.70;102135.53;4941930;28;125929;-70
2023/12/18 07:42:24;;;;;;;;;;;;;;;10.88;50.41;102126.97;4929217;28;98314;-65
2023/12/18 07:44:50;;;;;;;;;;;;;;;10.97;50.42;102135.59;4944374;28;98136;-65
2023/12/18 07:47:16;;;;;;;;;;;;;;;11.11;50.25;102125.41;4925826;28;123063;-69
2023/12/18 07:49:42;;;;;;;;;;;;;;;11.27;49.92;102122.84;4945374;28;103071;-65
2023/12/18 07:52:08;;;;;;;;;;;;;;;11.42;49.83;102121.59;4928028;28;98778;-70
2023/12/18 07:54:34;;;;;;;;;;;;;;;11.47;50.03;102117.13;4928403;28;98282;-64
2023/12/18 07:57:02;;;;;;;;;;;;;;;11.48;50.07;102124.19;4908554;28;98494;-65
2023/12/18 07:59:29;;;;;;;;;;;;;;;11.51;49.88;102125.59;4945809;28;98329;-65
2023/12/18 08:01:55;;;;;;;;;;;;;;;11.60;49.97;102112.59;4945547;28;98671;-69
2023/12/18 08:04:21;;;;;;;;;;;;;;;11.74;49.89;102114.81;4937669;28;126893;-69
2023/12/18 08:06:47;;;;;;;;;;;;;;;11.96;49.75;102115.06;4928258;28;98326;-69
2023/12/18 08:09:14;;;;;;;;;;;;;;;12.22;49.44;102116.44;4942539;28;98408;-65
2023/12/18 08:11:40;;;;;;;;;;;;;;;12.56;49.29;102118.47;4924229;28;98074;-69
2023/12/18 08:14:06;;;;;;;;;;;;;;;13.10;49.16;102121.63;4942802;28;98057;-69
2023/12/18 08:16:32;;;;;;;;;;;;;;;13.85;48.28;102115.81;4926644;28;98201;-70
2023/12/18 08:18:59;;;;;;;;;;;;;;;14.36;47.84;102119.19;4908814;28;98165;-66
2023/12/18 08:21:25;;;;;;;;;;;;;;;14.88;47.65;102124.13;4944807;28;108103;-66
2023/12/18 08:23:52;;;;;;;;;;;;;;;15.37;47.87;102134.09;4924689;28;99244;-65
2023/12/18 08:26:18;;;;;;;;;;;;;;;15.85;47.75;102126.88;4930831;28;99977;-70
2023/12/18 08:28:44;;;;;;;;;;;;;;;16.32;47.52;102126.84;4926785;28;98138;-65
2023/12/18 08:31:11;;;;;;;;;;;;;;;16.79;47.50;102125.09;4922649;28;109153;-70
2023/12/18 08:33:40;;;;;;;;;;;;;;;17.23;47.47;102136.31;4942817;28;98249;-70
2023/12/18 08:36:06;;;;;;;;;;;;;;;17.49;47.47;102133.59;4937460;28;105743;-66
2023/12/18 08:38:32;;;;;;;;;;;;;;;17.53;47.93;102140.97;4920610;28;99017;-69
2023/12/18 08:40:58;;;;;;;;;;;;;;;17.46;48.19;102131.44;4943166;28;98289;-66
2023/12/18 08:43:24;;;;;;;;;;;;;;;17.57;48.12;102131.16;4927329;28;125059;-70
2023/12/18 08:45:50;;;;;;;;;;;;;;;17.83;47.92;102142.03;4929464;28;99615;-69
2023/12/18 08:48:16;;;;;;;;;;;;;;;18.24;47.58;102134.56;4930108;28;98141;-65
2023/12/18 08:50:43;;;;;;;;;;;;;;;18.60;47.43;102135.22;4924870;28;98461;-69
2023/12/18 08:53:08;;;;;;;;;;;;;;;18.93;47.52;102137.50;4939916;28;103164;-69
2023/12/18 08:55:38;;;;;;;;;;;;;;;19.21;47.61;102134.00;4942282;28;113920;-69
2023/12/18 08:58:07;;;;;;;;;;;;;;;19.47;47.50;102131.88;4929261;28;98972;-70
2023/12/18 09:00:34;;;;;;;;;;;;;;;19.71;47.41;102142.91;4930279;28;98178;-66
2023/12/18 09:03:00;;;;;;;;;;;;;;;19.95;47.35;102145.66;4934938;28;111833;-66
2023/12/18 09:05:27;;;;;;;;;;;;;;;20.31;47.17;102137.84;4931623;28;98268;-66
2023/12/18 09:07:53;;;;;;;;;;;;;;;20.55;47.05;102132.41;4925889;28;99228;-70
2023/12/18 09:10:22;;;;;;;;;;;;;;;20.69;46.89;102134.38;4928346;28;98312;-70
2023/12/18 09:12:48;;;;;;;;;;;;;;;20.72;47.15;102128.31;4915106;28;98956;-69
2023/12/18 09:15:14;;;;;;;;;;;;;;;20.63;47.39;102130.09;4933772;28;98430;-70
2023/12/18 09:17:40;;;;;;;;;;;;;;;20.53;47.61;102131.84;4946117;28;98260;-70
2023/12/18 09:20:07;;;;;;;;;;;;;;;20.48;47.78;102131.91;4956269;28;99761;-66
2023/12/18 09:22:34;;;;;;;;;;;;;;;20.42;47.89;102137.72;4941482;28;107688;-65
2023/12/18 09:25:00;;;;;;;;;;;;;;;20.37;47.96;102132.34;4926843;28;98683;-69
2023/12/18 09:27:27;;;;;;;;;;;;;;;20.43;48.02;102136.63;4925522;28;109474;-69
2023/12/18 09:29:53;;;;;;;;;;;;;;;20.40;48.03;102140.78;4920306;28;102672;-69
2023/12/18 09:32:19;;;;;;;;;;;;;;;20.28;48.32;102140.38;4924731;28;99975;-69
2023/12/18 09:34:45;;;;;;;;;;;;;;;20.32;48.20;102142.25;4926179;28;98080;-69
2023/12/18 09:37:11;;;;;;;;;;;;;;;20.42;48.15;102144.03;4927629;28;112482;-69
2023/12/18 09:39:37;;;;;;;;;;;;;;;20.10;48.64;102142.75;4943190;28;117215;-66
2023/12/18 09:42:05;;;;;;;;;;;;;;;19.82;48.92;102140.91;4941985;28;98754;-69
2023/12/18 09:44:34;;;;;;;;;;;;;;;19.58;49.07;102133.44;4938582;28;99186;-66
2023/12/18 09:47:00;;;;;;;;;;;;;;;19.37;49.13;102137.44;4938388;28;98509;-66
2023/12/18 09:49:26;;;;;;;;;;;;;;;19.16;49.34;102144.19;4924038;28;98167;-69
2023/12/18 09:51:53;;;;;;;;;;;;;;;18.95;49.31;102144.34;4922794;28;98234;-69
2023/12/18 09:54:20;;;;;;;;;;;;;;;18.74;49.72;102140.88;4924577;28;98377;-69
2023/12/18 09:56:48;;;;;;;;;;;;;;;18.54;49.65;102132.78;4919399;28;98444;-69
2023/12/18 09:59:16;;;;;;;;;;;;;;;18.35;49.50;102132.59;4907087;28;98272;-69
2023/12/18 10:01:42;;;;;;;;;;;;;;;18.15;49.63;102125.31;4924806;28;98477;-69
2023/12/18 10:04:08;;;;;;;;;;;;;;;17.97;49.67;102112.28;4923937;28;100317;-65
2023/12/18 10:06:35;;;;;;;;;;;;;;;17.80;49.95;102118.88;4954428;28;98136;-69
2023/12/18 10:09:09;;;;;;;;;;;;;;;17.65;49.92;102113.41;4925401;28;98392;-66
2023/12/18 10:11:35;;;;;;;;;;;;;;;17.53;49.83;102091.91;4928817;28;99912;-68
2023/12/18 10:14:01;;;;;;;;;;;;;;;17.47;49.85;102105.81;4925238;28;99380;-69
2023/12/18 10:16:27;;;;;;;;;;;;;;;17.45;49.86;102097.06;4940071;28;98113;-69
2023/12/18 10:18:53;;;;;;;;;;;;;;;17.45;49.75;102087.00;4925691;28;98117;-69
2023/12/18 10:21:25;;;;;;;;;;;;;;;17.47;49.60;102084.00;4926308;28;99845;-65
2023/12/18 10:23:52;;;;;;;;;;;;;;;17.50;49.51;102086.19;4951084;28;98609;-65
2023/12/18 10:26:18;;;;;;;;;;;;;;;17.56;49.49;102071.44;4921074;28;98306;-68
2023/12/18 10:28:45;;;;;;;;;;;;;;;17.61;49.49;102072.25;4924139;28;98676;-69
2023/12/18 10:31:11;;;;;;;;;;;;;;;17.67;49.19;102073.03;4924315;28;107590;-66
2023/12/18 10:33:37;;;;;;;;;;;;;;;17.75;49.03;102058.88;4925570;28;130589;-65
2023/12/18 10:36:06;;;;;;;;;;;;;;;17.82;49.08;102059.41;4929309;28;98470;-69
2023/12/18 10:38:32;;;;;;;;;;;;;;;17.88;49.14;102060.19;4928061;28;97899;-66
2023/12/18 10:40:59;;;;;;;;;;;;;;;17.98;48.98;102062.09;4926917;28;98184;-66
2023/12/18 10:43:29;;;;;;;;;;;;;;;18.05;48.85;102078.97;4944158;28;100103;-69
2023/12/18 10:45:55;;;;;;;;;;;;;;;18.10;48.80;102063.38;4928917;28;99161;-70
2023/12/18 10:48:21;;;;;;;;;;;;;;;18.12;48.85;102069.41;4924012;28;98986;-69
2023/12/18 10:50:49;;;;;;;;;;;;;;;18.11;48.78;102067.75;4956385;28;129181;-66
2023/12/18 10:53:16;;;;;;;;;;;;;;;18.05;48.97;102066.16;4940150;28;100224;-70
2023/12/18 10:55:42;;;;;;;;;;;;;;;18.03;49.12;102070.25;4910421;28;107421;-70
2023/12/18 10:58:08;;;;;;;;;;;;;;;17.90;49.16;102069.75;4954704;28;113574;-66
2023/12/18 11:00:35;;;;;;;;;;;;;;;17.75;49.40;102064.31;4952359;28;98248;-70
2023/12/18 11:03:01;;;;;;;;;;;;;;;17.59;49.38;102066.25;4943133;28;117858;-66
2023/12/18 11:05:28;;;;;;;;;;;;;;;17.43;49.48;102061.91;4926667;28;99021;-65
2023/12/18 11:07:56;;;;;;;;;;;;;;;17.32;49.69;102057.56;4925381;28;98308;-65
2023/12/18 11:10:22;;;;;;;;;;;;;;;17.20;49.63;102057.03;4945545;28;99701;-69
2023/12/18 11:12:49;;;;;;;;;;;;;;;17.12;49.77;102058.41;4931661;28;98592;-65
2023/12/18 11:15:27;;;;;;;;;;;;;;;17.06;49.63;102052.16;4929053;28;99201;-69
2023/12/18 11:18:06;;;;;;;;;;;;;;;17.04;49.78;102043.41;4939192;28;98552;-69
2023/12/18 11:20:34;;;;;;;;;;;;;;;17.04;49.66;102046.13;4948908;28;98440;-65
2023/12/18 11:23:01;;;;;;;;;;;;;;;17.06;49.53;102054.06;4923877;28;99663;-66
2023/12/18 11:25:37;;;;;;;;;;;;;;;17.03;49.71;102051.88;4930020;28;98129;-66
2023/12/18 11:28:04;;;;;;;;;;;;;;;17.00;49.52;102046.97;4938739;28;97863;-66
2023/12/18 11:30:35;;;;;;;;;;;;;;;16.92;49.62;102037.44;4944724;28;98623;-68
2023/12/18 11:33:05;;;;;;;;;;;;;;;16.85;49.76;102037.69;4927480;28;99869;-69
2023/12/18 11:35:34;;;;;;;;;;;;;;;16.75;49.90;102028.72;4926690;28;99514;-70
2023/12/18 11:38:22;;;;;;;;;;;;;;;16.68;49.73;102023.50;4929287;28;99109;-66
2023/12/18 11:40:49;;;;;;;;;;;;;;;16.57;49.97;102014.50;4959333;28;100175;-69
2023/12/18 11:43:35;;;;;;;;;;;;;;;16.46;50.00;102004.69;4928717;28;101887;-66
2023/12/18 11:46:02;;;;;;;;;;;;;;;16.32;50.26;101979.09;4923857;28;98354;-69
2023/12/18 11:48:28;;;;;;;;;;;;;;;16.19;50.21;102007.59;4929136;28;98581;-70
2023/12/18 11:50:54;;;;;;;;;;;;;;;16.07;50.19;102010.59;4939018;28;99508;-66
2023/12/18 11:53:22;;;;;;;;;;;;;;;15.97;50.13;102004.28;4923065;28;98380;-69
2023/12/18 11:55:52;;;;;;;;;;;;;;;15.84;50.27;101995.53;4958830;28;98125;-69
2023/12/18 11:58:25;;;;;;;;;;;;;;;15.73;50.25;102002.00;4925160;28;98760;-65
2023/12/18 12:00:51;;;;;;;;;;;;;;;15.66;50.29;101999.53;4942610;28;97977;-69
2023/12/18 12:03:18;;;;;;;;;;;;;;;15.63;50.24;101981.00;4928062;28;98076;-69
2023/12/18 12:05:45;;;;;;;;;;;;;;;15.67;50.23;101992.19;4951456;28;113745;-69
2023/12/18 12:08:11;;;;;;;;;;;;;;;15.69;49.92;101998.19;4923142;28;98848;-70
2023/12/18 12:10:45;;;;;;;;;;;;;;;15.73;49.88;101995.75;4911516;28;98200;-69
2023/12/18 12:13:27;;;;;;;;;;;;;;;15.76;49.69;101987.91;4943033;28;115135;-69
2023/12/18 12:15:58;;;;;;;;;;;;;;;15.81;49.74;101982.47;4958184;28;109848;-69
2023/12/18 12:18:25;;;;;;;;;;;;;;;15.83;49.73;101974.84;4944490;28;98176;-69
2023/12/18 12:20:51;;;;;;;;;;;;;;;15.83;49.81;101980.28;4909098;28;98121;-69
2023/12/18 12:23:17;;;;;;;;;;;;;;;15.88;49.71;101974.09;4927014;28;99591;-66
2023/12/18 12:25:43;;;;;;;;;;;;;;;15.95;49.74;101980.06;4945435;28;98038;-70
2023/12/18 12:28:09;;;;;;;;;;;;;;;16.05;49.82;101973.84;4941091;28;106557;-66
2023/12/18 12:30:35;;;;;;;;;;;;;;;16.13;49.84;101960.53;4934034;28;98002;-66